sensor_id;sensor_type;location;lat;lon;timestamp;temperature;humidity
11254;DHT22;5684;50.920;6.358;2022-07-29T07:11:24;20.20;94.30
11254;DHT22;5684;50.920;6.358;2022-07-29T07:16:14;19.20;94.00
11254;DHT22;5684;50.920;6.358;2022-07-29T07:18:40;19.90;94.30
11254;DHT22;5684;50.920;6.358;2022-07-29T07:21:06;20.30;94.40
11254;DHT22;5684;50.920;6.358;2022-07-29T07:32:57;21.30;94.90
11254;DHT22;5684;50.920;6.358;2022-07-29T07:50:00;20.10;94.30
11254;DHT22;5684;50.920;6.358;2022-07-29T07:53:59;20.10;94.30
11254;DHT22;5684;50.920;6.358;2022-07-29T10:23:41;20.10;94.30
11254;DHT22;5684;50.920;6.358;2022-07-29T14:10:22;20.10;94.40
11254;DHT22;5684;50.920;6.358;2022-07-29T14:12:47;20.10;94.40
11254;DHT22;5684;50.920;6.358;2022-07-29T14:16:29;20.10;94.40
11254;DHT22;5684;50.920;6.358;2022-07-29T14:19:41;20.10;94.40
11254;DHT22;5684;50.920;6.358;2022-07-29T14:22:07;20.00;94.40
11254;DHT22;5684;50.920;6.358;2022-07-29T14:24:33;20.00;94.40
11254;DHT22;5684;50.920;6.358;2022-07-29T14:26:59;20.00;94.50
11254;DHT22;5684;50.920;6.358;2022-07-29T14:29:24;20.00;94.50
11254;DHT22;5684;50.920;6.358;2022-07-29T14:31:50;20.00;94.50
11254;DHT22;5684;50.920;6.358;2022-07-29T14:34:16;20.00;94.50
11254;DHT22;5684;50.920;6.358;2022-07-29T14:36:41;21.20;95.00
11254;DHT22;5684;50.920;6.358;2022-07-29T14:39:07;20.00;94.50
11254;DHT22;5684;50.920;6.358;2022-07-29T14:41:33;20.00;94.50
11254;DHT22;5684;50.920;6.358;2022-07-29T14:43:59;20.00;94.50
11254;DHT22;5684;50.920;6.358;2022-07-29T14:46:27;20.00;94.50
11254;DHT22;5684;50.920;6.358;2022-07-29T14:48:53;20.00;94.50
11254;DHT22;5684;50.920;6.358;2022-07-29T14:51:18;20.00;94.50
11254;DHT22;5684;50.920;6.358;2022-07-29T14:53:44;20.00;94.50
11254;DHT22;5684;50.920;6.358;2022-07-29T14:56:09;20.00;94.50
11254;DHT22;5684;50.920;6.358;2022-07-29T14:58:35;20.00;94.50
11254;DHT22;5684;50.920;6.358;2022-07-29T15:01:00;20.00;94.50
11254;DHT22;5684;50.920;6.358;2022-07-29T15:03:26;20.00;94.50
11254;DHT22;5684;50.920;6.358;2022-07-29T15:05:53;20.00;94.50
11254;DHT22;5684;50.920;6.358;2022-07-29T15:08:18;20.00;94.50
11254;DHT22;5684;50.920;6.358;2022-07-29T15:10:44;20.00;94.50
11254;DHT22;5684;50.920;6.358;2022-07-29T15:13:09;20.00;94.50
11254;DHT22;5684;50.920;6.358;2022-07-29T15:15:35;20.00;94.50
11254;DHT22;5684;50.920;6.358;2022-07-29T16:36:25;20.10;94.50
11254;DHT22;5684;50.920;6.358;2022-07-29T16:41:18;20.10;94.50
11254;DHT22;5684;50.920;6.358;2022-07-29T20:27:40;20.10;94.50
11254;DHT22;5684;50.920;6.358;2022-07-29T20:48:28;20.10;94.50
11254;DHT22;5684;50.920;6.358;2022-07-29T21:03:57;20.00;94.60
11254;DHT22;5684;50.920;6.358;2022-07-29T22:32:05;20.00;94.60
11254;DHT22;5684;50.920;6.358;2022-07-29T22:34:45;20.00;94.60
11254;DHT22;5684;50.920;6.358;2022-07-29T22:40:16;20.10;94.60
11254;DHT22;5684;50.920;6.358;2022-07-29T22:45:16;20.00;94.60
11254;DHT22;5684;50.920;6.358;2022-07-29T22:50:16;20.00;94.70
11254;DHT22;5684;50.920;6.358;2022-07-29T22:55:16;20.00;94.70
11254;DHT22;5684;50.920;6.358;2022-07-29T22:57:42;20.00;94.70
11254;DHT22;5684;50.920;6.358;2022-07-29T23:00:08;20.00;95.10
11254;DHT22;5684;50.920;6.358;2022-07-29T23:02:33;20.00;94.90
11254;DHT22;5684;50.920;6.358;2022-07-29T23:05:01;20.00;94.90
11254;DHT22;5684;50.920;6.358;2022-07-29T23:07:27;20.00;94.90
11254;DHT22;5684;50.920;6.358;2022-07-29T23:16:46;20.10;94.60
11254;DHT22;5684;50.920;6.358;2022-07-29T23:19:11;20.00;94.60
11254;DHT22;5684;50.920;6.358;2022-07-29T23:21:37;20.10;94.90
11254;DHT22;5684;50.920;6.358;2022-07-29T23:24:03;20.00;94.90
11254;DHT22;5684;50.920;6.358;2022-07-29T23:26:28;20.00;94.90
11254;DHT22;5684;50.920;6.358;2022-07-29T23:28:54;20.00;94.90
11254;DHT22;5684;50.920;6.358;2022-07-29T23:31:20;20.00;94.90
11254;DHT22;5684;50.920;6.358;2022-07-29T23:33:45;20.00;94.90
11254;DHT22;5684;50.920;6.358;2022-07-29T23:36:11;20.00;94.70
11254;DHT22;5684;50.920;6.358;2022-07-29T23:38:39;20.00;94.70
11254;DHT22;5684;50.920;6.358;2022-07-29T23:41:05;20.00;94.90
11254;DHT22;5684;50.920;6.358;2022-07-29T23:43:34;20.00;94.90
11254;DHT22;5684;50.920;6.358;2022-07-29T23:46:00;20.00;94.70
11254;DHT22;5684;50.920;6.358;2022-07-29T23:48:25;20.00;94.90
11254;DHT22;5684;50.920;6.358;2022-07-29T23:50:51;20.00;94.90
11254;DHT22;5684;50.920;6.358;2022-07-29T23:53:16;20.00;94.70
11254;DHT22;5684;50.920;6.358;2022-07-29T23:55:42;20.00;94.90
11254;DHT22;5684;50.920;6.358;2022-07-29T23:58:08;20.00;94.90
